Time;durP1;ratioP1;P1;durP2;ratioP2;P2;SDS_P1;SDS_P2;PMS_P1;PMS_P2;Temp;Humidity;BMP_temperature;BMP_pressure;BME280_temperature;BME280_humidity;BME280_pressure;Samples;Min_cycle;Max_cycle;Signal;HPM_P1;HPM_P2
2023/04/02 00:01:25;;;;;;;26.37;25.27;;;;;;;2.57;100.00;101734.66;5035944;28;20633;-43
2023/04/02 00:04:21;;;;;;;26.83;25.43;;;;;;;2.59;100.00;101745.94;5031946;28;20583;-45
2023/04/02 00:06:55;;;;;;;26.47;25.17;;;;;;;2.57;100.00;101749.66;5035110;28;20468;-45
2023/04/02 00:09:32;;;;;;;26.63;24.80;;;;;;;2.55;100.00;101749.75;5035830;28;20439;-47
2023/04/02 00:12:14;;;;;;;27.50;25.90;;;;;;;2.54;100.00;101755.97;5035512;28;20434;-46
2023/04/02 00:14:50;;;;;;;27.90;26.40;;;;;;;2.57;100.00;101754.91;5035663;28;20755;-43
2023/04/02 00:17:18;;;;;;;27.40;26.30;;;;;;;2.55;100.00;101760.28;5035245;28;20551;-43
2023/04/02 00:19:52;;;;;;;28.97;27.40;;;;;;;2.56;100.00;101763.75;5035731;28;20436;-43
2023/04/02 00:22:22;;;;;;;27.03;25.83;;;;;;;2.54;100.00;101769.13;5035398;28;20438;-46
2023/04/02 00:24:52;;;;;;;26.83;25.43;;;;;;;2.54;100.00;101777.03;5035520;28;21063;-45
2023/04/02 00:27:20;;;;;;;26.63;25.40;;;;;;;2.55;100.00;101778.72;5034247;28;20452;-44
2023/04/02 00:29:51;;;;;;;25.60;24.50;;;;;;;2.56;100.00;101777.78;5035709;28;20432;-43
2023/04/02 00:32:24;;;;;;;25.23;24.13;;;;;;;2.54;100.00;101777.03;5035150;28;20437;-46
2023/04/02 00:34:52;;;;;;;26.33;24.93;;;;;;;2.52;100.00;101775.47;5033911;28;20428;-43
2023/04/02 00:37:24;;;;;;;26.53;25.43;;;;;;;2.51;100.00;101766.72;5034852;28;20436;-45
2023/04/02 00:39:56;;;;;;;26.97;25.70;;;;;;;2.52;100.00;101786.00;5035281;28;20508;-43
2023/04/02 00:42:25;;;;;;;26.67;25.47;;;;;;;2.53;100.00;101785.91;5035059;28;20432;-47
2023/04/02 00:44:54;;;;;;;27.37;25.40;;;;;;;2.56;100.00;101795.34;5034518;28;20483;-44
2023/04/02 00:47:25;;;;;;;26.63;25.43;;;;;;;2.57;100.00;101789.16;5034423;28;20457;-48
2023/04/02 00:49:58;;;;;;;26.60;25.40;;;;;;;2.62;100.00;101808.03;5034870;28;20771;-43
2023/04/02 00:52:29;;;;;;;29.33;26.87;;;;;;;2.64;100.00;101799.06;5034839;28;20428;-43
2023/04/02 00:55:02;;;;;;;27.30;25.50;;;;;;;2.62;100.00;101803.63;5034712;28;20436;-44
2023/04/02 00:57:32;;;;;;;27.10;25.90;;;;;;;2.64;100.00;101809.59;5034541;28;20456;-43
2023/04/02 01:00:12;;;;;;;27.33;25.90;;;;;;;2.64;100.00;101804.34;5034877;28;20482;-47
2023/04/02 01:02:40;;;;;;;26.20;25.10;;;;;;;2.65;100.00;101808.66;5034308;28;20448;-44
2023/04/02 01:05:22;;;;;;;26.63;25.33;;;;;;;2.66;100.00;101804.19;5032683;28;20511;-45
2023/04/02 01:08:07;;;;;;;27.40;26.10;;;;;;;2.67;100.00;101816.41;5034845;28;20452;-48
2023/04/02 01:10:53;;;;;;;26.87;25.57;;;;;;;2.67;100.00;101817.25;5034714;28;20454;-44
2023/04/02 01:13:28;;;;;;;26.07;24.87;;;;;;;2.72;100.00;101822.16;5034535;28;20447;-49
2023/04/02 01:16:04;;;;;;;25.83;24.53;;;;;;;2.71;100.00;101826.59;5033985;28;20475;-47
2023/04/02 01:18:49;;;;;;;25.67;24.67;;;;;;;2.70;100.00;101830.19;5034532;28;20474;-45
2023/04/02 01:21:36;;;;;;;26.33;25.13;;;;;;;2.75;100.00;101832.44;5033766;28;20795;-43
2023/04/02 01:24:06;;;;;;;26.00;25.00;;;;;;;2.73;100.00;101829.94;5034256;28;20475;-46
2023/04/02 01:26:45;;;;;;;25.80;24.73;;;;;;;2.72;100.00;101827.41;5033655;28;20468;-44
2023/04/02 01:29:16;;;;;;;25.43;24.33;;;;;;;2.74;100.00;101839.53;5034270;28;20432;-44
2023/04/02 01:31:45;;;;;;;25.60;24.50;;;;;;;2.75;100.00;101829.81;5033768;28;20476;-46
2023/04/02 01:34:16;;;;;;;26.33;24.93;;;;;;;2.73;100.00;101832.59;5033817;28;20432;-50
2023/04/02 01:36:55;;;;;;;25.30;24.30;;;;;;;2.75;100.00;101846.47;5033265;28;20468;-45
2023/04/02 01:39:36;;;;;;;25.30;24.30;;;;;;;2.75;100.00;101864.91;5033707;28;20436;-46
2023/04/02 01:42:12;;;;;;;25.40;24.30;;;;;;;2.75;100.00;101845.63;5033662;28;20490;-44
2023/04/02 01:44:44;;;;;;;25.70;24.70;;;;;;;2.74;100.00;101854.50;5034114;28;20502;-44
2023/04/02 01:47:14;;;;;;;25.20;24.20;;;;;;;2.73;100.00;101858.94;5032387;28;20530;-44
2023/04/02 01:49:43;;;;;;;25.17;24.07;;;;;;;2.70;100.00;101856.53;5033318;28;20982;-43
2023/04/02 01:52:16;;;;;;;25.90;24.90;;;;;;;2.67;100.00;101861.19;5033736;28;20436;-43
2023/04/02 01:54:46;;;;;;;24.87;23.87;;;;;;;2.64;100.00;101864.91;5033496;28;20523;-43
2023/04/02 01:57:14;;;;;;;25.10;24.10;;;;;;;2.64;100.00;101869.31;5032811;28;20547;-43
2023/04/02 01:59:43;;;;;;;26.13;25.13;;;;;;;2.62;100.00;101876.50;5033237;28;20942;-46
2023/04/02 02:02:13;;;;;;;26.33;25.23;;;;;;;2.62;100.00;101866.81;5032931;28;20446;-43
2023/04/02 02:04:41;;;;;;;25.97;24.77;;;;;;;2.60;100.00;101884.53;5032893;28;20476;-49
2023/04/02 02:07:15;;;;;;;26.37;25.27;;;;;;;2.62;100.00;101908.13;5032703;28;20842;-44
2023/04/02 02:09:44;;;;;;;27.20;26.00;;;;;;;2.62;100.00;101898.44;5033136;28;20439;-49
2023/04/02 02:12:14;;;;;;;27.00;25.90;;;;;;;2.61;100.00;101903.78;5033088;28;20464;-45
2023/04/02 02:14:48;;;;;;;28.10;26.90;;;;;;;2.58;100.00;101909.28;5033370;28;20830;-45
2023/04/02 02:17:18;;;;;;;26.20;25.10;;;;;;;2.55;100.00;101915.63;5032630;28;20468;-47
2023/04/02 02:19:49;;;;;;;26.07;25.07;;;;;;;2.55;100.00;101917.44;5033131;28;20431;-45
2023/04/02 02:22:24;;;;;;;26.67;25.60;;;;;;;2.56;100.00;101921.75;5033182;28;20442;-44
2023/04/02 02:24:53;;;;;;;30.47;28.80;;;;;;;2.57;100.00;101918.97;5033337;28;20475;-46
2023/04/02 02:27:59;;;;;;;25.47;24.40;;;;;;;2.55;100.00;101915.63;5033459;28;20452;-46
2023/04/02 02:30:31;;;;;;;25.20;24.30;;;;;;;2.53;100.00;101920.19;4991857;28;20481;-44
2023/04/02 02:33:05;;;;;;;25.10;24.07;;;;;;;2.50;100.00;101915.16;4991093;28;20440;-46
2023/04/02 02:35:38;;;;;;;24.63;23.63;;;;;;;2.46;100.00;101921.59;5013804;28;20459;-44
2023/04/02 02:38:41;;;;;;;24.50;23.57;;;;;;;2.43;100.00;101927.09;5032215;28;20559;-45
2023/04/02 02:41:16;;;;;;;24.30;23.40;;;;;;;2.42;100.00;101935.94;5029606;28;20438;-46
2023/04/02 02:43:53;;;;;;;25.47;24.47;;;;;;;2.43;100.00;101953.41;5032212;28;20663;-44
2023/04/02 02:46:25;;;;;;;25.60;24.50;;;;;;;2.43;100.00;101947.31;5031412;28;20467;-47
2023/04/02 02:48:55;;;;;;;25.93;24.70;;;;;;;2.43;100.00;101950.78;5031690;28;20436;-43
2023/04/02 02:51:28;;;;;;;26.90;25.67;;;;;;;2.42;100.00;101954.38;5031857;28;20439;-45
2023/04/02 02:54:02;;;;;;;27.40;26.20;;;;;;;2.43;100.00;101960.47;5032099;28;20938;-43
2023/04/02 02:56:33;;;;;;;27.27;26.17;;;;;;;2.42;100.00;101970.16;5031377;28;20988;-47
2023/04/02 02:59:02;;;;;;;26.63;25.53;;;;;;;2.43;100.00;101971.00;5034379;28;20431;-46
2023/04/02 03:01:32;;;;;;;26.23;25.13;;;;;;;2.42;100.00;101975.44;5036175;28;20440;-45
2023/04/02 03:04:00;;;;;;;26.90;25.80;;;;;;;2.41;100.00;101976.41;5035936;28;20447;-43
2023/04/02 03:06:28;;;;;;;25.83;24.83;;;;;;;2.42;100.00;101982.50;5035421;28;21059;-44
2023/04/02 03:09:03;;;;;;;26.03;25.00;;;;;;;2.39;100.00;101983.53;5035867;28;20439;-46
2023/04/02 03:11:37;;;;;;;26.60;25.43;;;;;;;2.40;100.00;101989.66;5035298;28;20435;-45
2023/04/02 03:14:15;;;;;;;25.83;24.63;;;;;;;2.38;100.00;101997.69;5035499;28;20435;-49
2023/04/02 03:16:49;;;;;;;25.77;24.77;;;;;;;2.40;100.00;101992.28;5034972;28;20471;-44
2023/04/02 03:19:28;;;;;;;25.43;24.53;;;;;;;2.35;100.00;101984.75;5035558;28;20802;-43
2023/04/02 03:22:01;;;;;;;25.47;24.27;;;;;;;2.34;100.00;101985.69;5035642;28;20436;-45
2023/04/02 03:24:36;;;;;;;26.37;24.90;;;;;;;2.35;100.00;102000.53;5035739;28;20447;-44
2023/04/02 03:27:11;;;;;;;24.83;23.93;;;;;;;2.31;100.00;101993.81;5035699;28;20464;-43
2023/04/02 03:29:43;;;;;;;25.47;24.47;;;;;;;2.31;100.00;102014.03;5035939;28;20489;-44
2023/04/02 03:32:18;;;;;;;25.50;24.50;;;;;;;2.31;100.00;102024.56;5035443;28;20432;-45
2023/04/02 03:34:51;;;;;;;25.43;24.43;;;;;;;2.34;100.00;102030.44;5034954;28;20440;-43
2023/04/02 03:37:24;;;;;;;24.73;23.80;;;;;;;2.35;100.00;102044.44;5034731;28;20439;-44
2023/04/02 03:39:56;;;;;;;25.87;24.87;;;;;;;2.31;100.00;102041.19;5035565;28;20432;-43
2023/04/02 03:42:26;;;;;;;25.60;24.50;;;;;;;2.33;100.00;102047.19;5035066;28;20436;-47
2023/04/02 03:44:58;;;;;;;26.20;24.93;;;;;;;2.32;100.00;102053.41;5034437;28;20942;-45
2023/04/02 03:47:34;;;;;;;27.07;25.97;;;;;;;2.32;100.00;102060.47;5034810;28;20458;-45
2023/04/02 03:50:06;;;;;;;27.87;26.53;;;;;;;2.30;100.00;102062.38;5035021;28;20471;-47
2023/04/02 03:52:36;;;;;;;26.67;25.57;;;;;;;2.30;100.00;102073.72;5034813;28;20474;-46
2023/04/02 03:55:14;;;;;;;26.77;25.47;;;;;;;2.27;100.00;102068.69;5034594;28;20527;-44
2023/04/02 03:57:51;;;;;;;26.17;25.07;;;;;;;2.30;100.00;102078.16;5034732;28;20479;-47
2023/04/02 04:00:23;;;;;;;26.93;25.83;;;;;;;2.29;100.00;102084.38;5035224;28;20429;-44
2023/04/02 04:02:56;;;;;;;26.10;25.10;;;;;;;2.27;100.00;102099.44;5034416;28;20436;-46
2023/04/02 04:05:28;;;;;;;26.47;25.47;;;;;;;2.19;100.00;102098.19;5033799;28;20479;-46
2023/04/02 04:08:01;;;;;;;27.33;26.03;;;;;;;2.21;100.00;102100.72;5034810;28;20467;-43
2023/04/02 04:10:29;;;;;;;26.67;25.50;;;;;;;2.19;100.00;102115.78;5034381;28;20973;-43
2023/04/02 04:13:04;;;;;;;28.20;26.80;;;;;;;2.15;100.00;102119.59;5034506;28;20482;-43
2023/04/02 04:15:36;;;;;;;27.43;26.13;;;;;;;2.10;100.00;102116.41;5033800;28;20550;-46
2023/04/02 04:18:18;;;;;;;28.03;26.73;;;;;;;2.06;100.00;102115.78;5033189;28;20777;-43
2023/04/02 04:20:55;;;;;;;26.40;25.00;;;;;;;2.04;100.00;102116.84;5034264;28;20543;-44
2023/04/02 04:23:32;;;;;;;26.50;25.30;;;;;;;2.04;100.00;102128.22;5034097;28;20438;-43
2023/04/02 04:26:08;;;;;;;26.73;25.73;;;;;;;2.02;100.00;102140.66;5033435;28;20480;-44
2023/04/02 04:28:42;;;;;;;26.23;25.17;;;;;;;2.01;100.00;102140.75;5033766;28;20428;-47
2023/04/02 04:31:19;;;;;;;26.30;25.30;;;;;;;2.01;100.00;102146.00;5033530;28;20440;-43
2023/04/02 04:33:54;;;;;;;26.10;25.10;;;;;;;2.01;100.00;102146.00;5033365;28;21025;-45
2023/04/02 04:36:27;;;;;;;26.13;25.03;;;;;;;1.96;100.00;102159.50;5032899;28;21021;-45
2023/04/02 04:39:00;;;;;;;26.00;24.90;;;;;;;1.97;100.00;102162.97;5033547;28;20433;-43
2023/04/02 04:41:32;;;;;;;26.70;25.50;;;;;;;1.94;100.00;102155.31;5033265;28;20419;-46
2023/04/02 04:44:04;;;;;;;26.40;25.40;;;;;;;1.93;100.00;102159.72;5033509;28;20838;-44
2023/04/02 04:46:38;;;;;;;25.93;24.93;;;;;;;1.93;100.00;102164.97;5032285;28;20522;-44
2023/04/02 04:49:14;;;;;;;26.27;25.27;;;;;;;1.93;100.00;102174.66;5033350;28;20443;-42
2023/04/02 04:51:47;;;;;;;27.37;26.17;;;;;;;1.90;100.00;102183.59;5032775;28;20428;-43
2023/04/02 04:54:17;;;;;;;26.80;25.80;;;;;;;1.90;100.00;102175.72;5033213;28;20424;-44
2023/04/02 04:56:48;;;;;;;26.73;25.63;;;;;;;1.91;100.00;102180.00;5032161;28;20470;-44
2023/04/02 04:59:21;;;;;;;26.17;25.07;;;;;;;1.89;100.00;102184.53;5033293;28;20922;-44
2023/04/02 05:01:55;;;;;;;27.07;25.97;;;;;;;1.91;100.00;102198.41;5030635;28;20451;-47
2023/04/02 05:04:31;;;;;;;26.17;25.20;;;;;;;1.93;100.00;102195.69;5032698;28;20455;-43
2023/04/02 05:07:04;;;;;;;24.80;23.90;;;;;;;1.95;100.00;102199.91;5032340;28;20484;-43
2023/04/02 05:09:37;;;;;;;24.83;23.93;;;;;;;1.97;100.00;102205.06;5029645;28;20468;-44
2023/04/02 05:12:14;;;;;;;25.93;24.63;;;;;;;1.99;100.00;102214.53;5025864;28;20437;-43
2023/04/02 05:14:49;;;;;;;25.17;23.97;;;;;;;2.04;100.00;102212.44;5028553;28;20424;-43
2023/04/02 05:17:21;;;;;;;24.70;23.70;;;;;;;2.21;100.00;102227.88;5027972;28;20471;-43
2023/04/02 05:19:56;;;;;;;24.17;23.13;;;;;;;2.62;100.00;102227.63;5029182;28;20436;-46
2023/04/02 05:22:33;;;;;;;24.30;23.27;;;;;;;2.98;100.00;102228.56;5028735;28;20439;-43
2023/04/02 05:25:15;;;;;;;23.93;22.93;;;;;;;3.38;100.00;102231.72;5006499;28;20448;-43
2023/04/02 05:27:51;;;;;;;24.17;23.27;;;;;;;3.63;100.00;102221.88;5029248;28;20472;-45
2023/04/02 05:30:51;;;;;;;24.23;23.33;;;;;;;3.68;100.00;102221.50;5031159;28;20419;-47
2023/04/02 05:33:23;;;;;;;24.63;23.23;;;;;;;3.68;100.00;102225.00;5030037;28;20436;-43
2023/04/02 05:35:58;;;;;;;23.70;22.90;;;;;;;3.96;100.00;102244.84;5029404;28;20465;-45
2023/04/02 05:38:28;;;;;;;25.20;24.30;;;;;;;4.16;100.00;102233.59;5029570;28;20424;-43
2023/04/02 05:41:01;;;;;;;24.57;23.67;;;;;;;4.71;100.00;102234.56;5029568;28;20603;-46
2023/04/02 05:43:32;;;;;;;24.67;23.77;;;;;;;5.12;100.00;102244.44;5031744;28;20436;-47
2023/04/02 05:46:13;;;;;;;25.30;24.30;;;;;;;5.44;100.00;102239.97;5017648;28;20469;-44
2023/04/02 05:48:43;;;;;;;24.27;23.33;;;;;;;6.17;100.00;102237.31;5012148;28;20441;-46
2023/04/02 05:51:19;;;;;;;24.60;23.40;;;;;;;7.08;100.00;102243.31;5030306;28;20615;-45
2023/04/02 05:53:52;;;;;;;23.87;22.67;;;;;;;7.42;99.78;102249.09;5030914;28;20461;-45
2023/04/02 05:56:23;;;;;;;22.50;21.70;;;;;;;7.84;91.58;102244.31;5029747;28;20475;-45
2023/04/02 05:58:56;;;;;;;22.37;21.67;;;;;;;7.77;89.49;102244.03;5030544;28;20535;-48
2023/04/02 06:01:32;;;;;;;21.73;21.03;;;;;;;7.50;85.33;102264.28;5029155;28;20431;-45
2023/04/02 06:04:08;;;;;;;21.50;20.70;;;;;;;8.08;89.62;102259.78;5017919;28;20466;-45
2023/04/02 06:06:58;;;;;;;19.47;18.87;;;;;;;7.90;84.31;102272.09;5023938;28;20538;-46
2023/04/02 06:09:36;;;;;;;19.73;19.03;;;;;;;8.13;82.78;102276.97;5025641;28;20428;-47
2023/04/02 06:12:15;;;;;;;18.63;17.87;;;;;;;8.34;85.64;102274.13;5029046;28;20436;-48
2023/04/02 06:14:44;;;;;;;18.83;18.13;;;;;;;8.95;81.64;102277.09;5028654;28;20940;-49
2023/04/02 06:17:15;;;;;;;17.90;17.20;;;;;;;9.48;75.22;102278.97;5026317;28;20861;-45
2023/04/02 06:19:43;;;;;;;17.70;17.10;;;;;;;9.17;68.85;102289.97;5027934;28;20837;-46
2023/04/02 06:22:21;;;;;;;17.23;16.63;;;;;;;9.58;68.41;102288.56;5027250;28;20475;-44
2023/04/02 06:24:55;;;;;;;18.07;17.47;;;;;;;10.04;65.58;102300.75;5027058;28;20439;-45
2023/04/02 06:27:25;;;;;;;18.00;17.40;;;;;;;10.28;65.45;102306.31;5025877;28;20474;-44
2023/04/02 06:29:57;;;;;;;16.90;16.30;;;;;;;10.05;63.68;102302.44;5028853;28;20433;-46
2023/04/02 06:32:25;;;;;;;17.20;16.53;;;;;;;10.06;60.26;102309.47;5009131;28;20446;-44
2023/04/02 06:34:53;;;;;;;16.80;16.20;;;;;;;10.08;60.88;102310.13;5013435;28;20437;-44
2023/04/02 06:37:27;;;;;;;16.40;15.80;;;;;;;10.22;61.88;102306.94;5021153;28;20452;-48
2023/04/02 06:39:56;;;;;;;16.90;16.33;;;;;;;10.63;61.36;102313.38;5013457;28;20440;-44
2023/04/02 06:42:28;;;;;;;16.03;15.53;;;;;;;10.82;58.08;102312.25;5013540;28;20425;-44
2023/04/02 06:44:56;;;;;;;16.27;15.57;;;;;;;9.52;56.72;102321.13;5020533;28;20456;-46
2023/04/02 06:47:32;;;;;;;17.13;16.43;;;;;;;10.20;57.88;102314.25;5023931;28;20502;-44
2023/04/02 06:50:06;;;;;;;15.60;15.10;;;;;;;9.79;59.01;102312.22;5030827;28;20489;-45
2023/04/02 06:52:40;;;;;;;15.60;15.10;;;;;;;9.63;59.86;102325.38;5023702;28;20433;-43
2023/04/02 06:55:30;;;;;;;14.70;14.30;;;;;;;9.42;60.60;102341.66;5014767;28;20437;-47
2023/04/02 06:57:57;;;;;;;14.23;13.73;;;;;;;9.07;62.80;102352.22;5017444;28;20452;-46
2023/04/02 07:00:30;;;;;;;14.07;13.67;;;;;;;9.11;62.50;102343.78;5034073;28;20540;-44
2023/04/02 07:03:01;;;;;;;14.33;13.83;;;;;;;9.29;64.56;102341.16;5033872;28;20454;-44
2023/04/02 07:05:30;;;;;;;14.30;13.80;;;;;;;8.98;64.10;102348.63;5033983;28;21044;-44
2023/04/02 07:07:59;;;;;;;15.50;14.60;;;;;;;8.96;65.29;102349.78;5017466;28;20503;-45
2023/04/02 07:10:27;;;;;;;15.20;14.80;;;;;;;9.11;64.04;102353.63;5033827;28;20443;-46
2023/04/02 07:12:54;;;;;;;14.83;14.33;;;;;;;8.90;65.45;102354.69;5031317;28;20428;-44
2023/04/02 07:15:24;;;;;;;14.73;14.20;;;;;;;8.79;68.53;102376.16;5015821;28;20807;-44
2023/04/02 07:17:53;;;;;;;13.97;13.47;;;;;;;8.34;66.80;102362.69;5013401;28;20460;-46
2023/04/02 07:20:27;;;;;;;14.00;13.50;;;;;;;7.55;70.29;102376.22;5016650;28;20766;-44
2023/04/02 07:22:55;;;;;;;14.60;14.20;;;;;;;7.35;74.84;102371.88;5012986;28;20495;-45
2023/04/02 07:25:26;;;;;;;14.87;13.97;;;;;;;7.20;81.13;102388.16;5012862;28;20471;-44
2023/04/02 07:27:55;;;;;;;14.40;14.00;;;;;;;6.76;89.70;102390.31;5017009;28;20849;-43
2023/04/02 07:30:23;;;;;;;14.00;13.50;;;;;;;6.67;94.95;102389.31;5015423;28;20444;-45
2023/04/02 07:32:50;;;;;;;13.70;13.20;;;;;;;6.74;95.52;102401.06;5013090;28;20468;-45
2023/04/02 07:35:18;;;;;;;13.20;12.90;;;;;;;6.31;88.52;102405.66;5012970;28;20469;-43
2023/04/02 07:37:46;;;;;;;13.70;13.20;;;;;;;6.29;92.54;102407.63;5013245;28;20460;-47
2023/04/02 07:40:17;;;;;;;13.70;13.10;;;;;;;6.16;92.25;102412.25;5012547;28;20484;-42
2023/04/02 07:42:46;;;;;;;13.30;12.80;;;;;;;6.05;90.05;102419.28;5013226;28;20436;-47
2023/04/02 07:45:14;;;;;;;13.97;13.37;;;;;;;6.19;91.86;102430.53;5031408;28;20795;-44
2023/04/02 07:47:43;;;;;;;12.90;12.60;;;;;;;6.13;92.24;102429.22;5032850;28;20500;-51
2023/04/02 07:50:11;;;;;;;12.63;12.33;;;;;;;6.45;89.10;102431.88;5029508;28;20440;-44
2023/04/02 07:52:41;;;;;;;12.93;12.53;;;;;;;6.52;82.69;102430.38;5032171;28;20435;-44
2023/04/02 07:55:11;;;;;;;12.40;12.10;;;;;;;6.83;87.14;102436.56;5031645;28;20444;-45
2023/04/02 07:57:40;;;;;;;13.10;12.50;;;;;;;6.94;90.18;102433.81;5031619;28;20444;-45
2023/04/02 08:00:13;;;;;;;11.50;11.20;;;;;;;7.01;82.40;102435.00;5031938;28;20439;-46
2023/04/02 08:02:41;;;;;;;11.60;11.10;;;;;;;6.66;85.26;102445.94;5031856;28;20459;-43
2023/04/02 08:05:10;;;;;;;11.40;11.07;;;;;;;7.02;84.96;102458.72;5031371;28;20437;-47
2023/04/02 08:07:38;;;;;;;10.90;10.60;;;;;;;6.93;77.80;102454.19;5031677;28;20476;-45
2023/04/02 08:10:07;;;;;;;12.00;11.50;;;;;;;7.09;78.88;102459.88;5032117;28;20432;-46
2023/04/02 08:12:34;;;;;;;11.97;11.67;;;;;;;6.77;76.41;102460.94;5033708;28;20432;-46
2023/04/02 08:15:04;;;;;;;10.70;10.40;;;;;;;6.67;76.51;102463.53;5033186;28;20438;-47
2023/04/02 08:17:33;;;;;;;10.47;10.00;;;;;;;6.48;74.04;102474.81;5033670;28;20448;-44
2023/04/02 08:20:01;;;;;;;10.70;10.30;;;;;;;6.41;75.59;102468.38;5033234;28;20434;-46
2023/04/02 08:22:29;;;;;;;10.70;10.00;;;;;;;6.13;75.17;102477.75;5033487;28;20436;-45
2023/04/02 08:24:57;;;;;;;11.23;10.87;;;;;;;6.21;76.52;102478.94;5033022;28;20460;-42
2023/04/02 08:27:26;;;;;;;11.50;10.90;;;;;;;6.30;75.28;102478.19;5033228;28;20464;-43
2023/04/02 08:29:53;;;;;;;11.30;10.90;;;;;;;6.17;88.40;102473.06;5033245;28;20436;-43
2023/04/02 08:32:23;;;;;;;11.03;10.73;;;;;;;5.95;88.30;102491.66;5032678;28;20432;-45
2023/04/02 08:34:52;;;;;;;11.40;11.00;;;;;;;5.78;82.76;102492.13;5033490;28;21187;-44
2023/04/02 08:37:20;;;;;;;10.60;10.30;;;;;;;6.13;89.40;102517.47;5033133;28;20451;-46
2023/04/02 08:39:48;;;;;;;9.93;9.60;;;;;;;6.18;85.50;102495.09;5033281;28;20436;-43
2023/04/02 08:42:23;;;;;;;10.73;10.43;;;;;;;6.28;87.86;102503.94;5032773;28;20439;-42
2023/04/02 08:45:05;;;;;;;10.83;10.27;;;;;;;6.10;84.52;102507.13;5031522;28;20436;-44
2023/04/02 08:47:54;;;;;;;10.03;9.37;;;;;;;6.31;81.43;102503.69;5028058;28;20468;-44
2023/04/02 08:51:21;;;;;;;8.20;7.90;;;;;;;6.32;70.04;102526.59;5088568;27;20540;-45
2023/04/02 08:53:51;;;;;;;8.07;7.80;;;;;;;6.45;71.27;102506.88;5072525;28;20430;-45
2023/04/02 08:56:24;;;;;;;7.60;7.40;;;;;;;6.53;71.35;102522.16;5049408;28;20476;-44
2023/04/02 08:58:54;;;;;;;7.80;7.60;;;;;;;6.49;73.49;102521.56;5028229;28;20427;-45
2023/04/02 09:01:34;;;;;;;8.10;7.77;;;;;;;6.32;65.67;102531.88;5025712;28;20842;-43
2023/04/02 09:04:13;;;;;;;7.00;6.80;;;;;;;6.26;67.53;102532.38;5030754;28;20555;-43
2023/04/02 09:06:43;;;;;;;7.10;6.83;;;;;;;6.46;65.96;102537.72;5026470;28;20456;-46
2023/04/02 09:09:14;;;;;;;6.90;6.70;;;;;;;6.49;64.09;102534.81;5030281;28;20479;-44
2023/04/02 09:11:47;;;;;;;7.10;6.80;;;;;;;6.64;67.49;102540.66;5029663;28;20431;-44
2023/04/02 09:14:18;;;;;;;6.90;6.70;;;;;;;6.73;65.94;102547.00;5028278;28;20420;-45
2023/04/02 09:16:49;;;;;;;6.30;6.10;;;;;;;6.87;61.84;102549.38;5042011;28;20872;-44
2023/04/02 09:19:21;;;;;;;6.20;6.00;;;;;;;6.65;59.97;102561.75;5047543;28;20554;-45
2023/04/02 09:22:07;;;;;;;6.80;6.50;;;;;;;6.71;61.64;102567.50;5039367;28;20439;-45
2023/04/02 09:24:36;;;;;;;5.90;5.80;;;;;;;6.86;61.13;102559.13;5036859;28;20423;-46
2023/04/02 09:27:16;;;;;;;6.83;6.47;;;;;;;7.08;61.01;102560.81;5046959;28;20815;-44
2023/04/02 09:29:46;;;;;;;9.07;8.10;;;;;;;7.11;64.03;102569.34;5047812;28;20824;-46
2023/04/02 09:32:31;;;;;;;7.73;7.33;;;;;;;7.09;58.67;102567.78;5047430;28;20436;-44
2023/04/02 09:35:11;;;;;;;6.43;6.23;;;;;;;7.09;59.40;102570.44;5047066;28;20999;-44
2023/04/02 09:38:17;;;;;;;6.50;6.07;;;;;;;7.27;58.78;102574.19;5047254;28;20538;-45
2023/04/02 09:40:49;;;;;;;6.30;6.13;;;;;;;7.26;60.38;102582.31;5047645;28;20849;-44
2023/04/02 09:43:19;;;;;;;5.93;5.67;;;;;;;7.31;61.27;102580.09;5047246;28;20427;-46
2023/04/02 09:45:57;;;;;;;5.03;4.83;;;;;;;7.32;63.86;102597.72;5046898;28;20466;-44
2023/04/02 09:48:29;;;;;;;5.30;5.10;;;;;;;7.51;61.31;102596.00;5047456;28;20537;-47
2023/04/02 09:51:05;;;;;;;5.10;4.90;;;;;;;7.57;63.28;102597.28;5047533;28;20479;-44
2023/04/02 09:53:36;;;;;;;5.00;4.70;;;;;;;7.41;65.52;102610.16;5047217;28;20423;-43
2023/04/02 09:56:10;;;;;;;5.33;4.93;;;;;;;7.61;60.79;102588.94;5046594;28;20479;-44
2023/04/02 09:58:38;;;;;;;7.97;4.93;;;;;;;7.58;60.30;102598.97;5046329;28;20923;-44
2023/04/02 10:01:10;;;;;;;5.17;4.97;;;;;;;7.44;61.94;102602.78;5021931;28;20433;-44
2023/04/02 10:03:37;;;;;;;5.33;5.13;;;;;;;7.13;65.84;102606.38;5013906;28;20487;-44
2023/04/02 10:06:08;;;;;;;5.60;5.50;;;;;;;6.91;70.71;102612.63;5013155;28;20503;-45
2023/04/02 10:08:39;;;;;;;6.00;5.90;;;;;;;6.84;66.72;102603.47;5014256;28;20448;-44
2023/04/02 10:11:10;;;;;;;5.73;5.57;;;;;;;6.85;62.16;102615.78;5014045;28;20835;-44
2023/04/02 10:13:48;;;;;;;5.50;5.30;;;;;;;7.05;61.21;102608.81;5013911;28;20428;-45
2023/04/02 10:16:20;;;;;;;5.20;5.00;;;;;;;7.36;56.47;102612.38;5012955;28;20457;-43
2023/04/02 10:18:50;;;;;;;4.60;4.50;;;;;;;7.23;56.31;102617.88;5013826;28;20503;-44
2023/04/02 10:21:23;;;;;;;4.90;4.80;;;;;;;6.91;61.97;102625.88;5011661;28;20441;-46
2023/04/02 10:23:52;;;;;;;5.20;5.00;;;;;;;6.82;56.49;102615.19;5013803;28;20425;-46
2023/04/02 10:26:48;;;;;;;5.30;5.10;;;;;;;6.84;52.96;102653.88;5024184;28;20535;-45
2023/04/02 10:29:30;;;;;;;5.00;4.80;;;;;;;6.92;54.24;102632.88;5031414;28;20810;-45
2023/04/02 10:32:04;;;;;;;4.73;4.57;;;;;;;7.14;51.14;102635.41;5033422;28;20451;-44
2023/04/02 10:34:40;;;;;;;5.10;4.83;;;;;;;7.21;53.12;102656.97;5033437;28;20432;-45
2023/04/02 10:37:40;;;;;;;4.40;4.30;;;;;;;6.99;54.44;102655.25;5029773;28;20470;-44
2023/04/02 10:40:14;;;;;;;4.17;4.07;;;;;;;6.93;53.54;102666.38;5033336;28;20482;-45
2023/04/02 10:42:48;;;;;;;4.60;4.50;;;;;;;6.91;55.54;102651.56;5033081;28;20948;-47
2023/04/02 10:45:38;;;;;;;4.60;4.50;;;;;;;7.03;56.51;102655.84;5031014;28;20970;-44
2023/04/02 10:48:16;;;;;;;4.97;4.67;;;;;;;7.48;56.99;102667.09;5032662;28;20442;-44
2023/04/02 10:50:51;;;;;;;4.50;4.30;;;;;;;7.70;53.65;102669.63;5033408;28;20471;-45
2023/04/02 10:53:21;;;;;;;6.20;4.47;;;;;;;7.71;52.08;102672.13;5033219;28;20583;-46
2023/04/02 10:55:54;;;;;;;5.00;4.70;;;;;;;7.75;55.83;102675.38;5032933;28;20463;-45
2023/04/02 10:58:24;;;;;;;4.10;3.87;;;;;;;7.75;52.95;102670.91;5032138;28;20429;-45
2023/04/02 11:00:59;;;;;;;4.70;4.50;;;;;;;7.76;50.48;102685.84;5033488;28;20436;-46
2023/04/02 11:03:33;;;;;;;4.90;4.60;;;;;;;7.59;52.79;102674.97;5033277;28;20754;-44
2023/04/02 11:06:05;;;;;;;4.63;4.43;;;;;;;7.67;53.99;102683.16;5032825;28;21001;-47
2023/04/02 11:08:40;;;;;;;5.07;4.67;;;;;;;7.99;54.93;102685.69;5033151;28;20428;-45
2023/04/02 11:11:14;;;;;;;4.80;4.60;;;;;;;8.08;55.45;102688.41;5032664;28;20621;-45
2023/04/02 11:13:49;;;;;;;4.63;4.33;;;;;;;7.96;54.42;102691.28;5032137;28;20530;-45
2023/04/02 11:16:17;;;;;;;4.80;4.60;;;;;;;8.02;57.39;102694.25;5032512;28;20464;-47
2023/04/02 11:19:24;;;;;;;4.70;4.50;;;;;;;8.03;56.74;102700.41;5032611;28;20486;-44
2023/04/02 11:21:54;;;;;;;5.10;4.90;;;;;;;7.72;60.94;102688.91;5027145;28;20961;-44
2023/04/02 11:24:36;;;;;;;5.60;5.20;;;;;;;7.92;55.36;102684.53;5032994;28;20428;-44
2023/04/02 11:27:14;;;;;;;4.50;4.30;;;;;;;7.97;52.89;102693.81;5032409;28;20468;-45
2023/04/02 11:29:45;;;;;;;5.03;4.67;;;;;;;7.87;53.28;102700.03;5032835;28;20516;-44
2023/04/02 11:32:30;;;;;;;4.97;4.77;;;;;;;8.00;54.58;102696.19;5032750;28;20476;-44
2023/04/02 11:35:02;;;;;;;5.33;5.10;;;;;;;8.09;56.79;102727.31;5031908;28;20873;-43
2023/04/02 11:37:37;;;;;;;4.53;4.13;;;;;;;8.02;52.72;102707.53;5032548;28;20557;-44
2023/04/02 11:40:45;;;;;;;4.57;4.27;;;;;;;8.14;52.91;102708.28;5032567;28;20435;-44
2023/04/02 11:43:59;;;;;;;4.10;3.90;;;;;;;8.03;51.78;102713.69;5032512;28;20450;-45
2023/04/02 11:46:44;;;;;;;4.40;4.13;;;;;;;8.07;52.34;102717.75;5030616;28;20464;-44
2023/04/02 11:49:55;;;;;;;4.63;4.43;;;;;;;8.34;52.22;102718.03;5032456;28;20971;-44